CYIN

Bleibler Ranch

Bleibler Ranch, British Columbia, Canada
METAR CYIN 190700Z AUTO 30009G17KT 9SM BKN075 BKN100 20/05 A3003 RMK SLP145 DENSITY ALT 4900FT
Observed Flight Rules
Jul-19 @ 07:00 UTC (33 minutes ago) Visual Flight Rules
Wind Visibility Clouds
300° at 9 knots
 Gusting to 17 knots
9 miles
  • Broken at 7,500' AGL
  • Broken at 10,000' AGL
Temperatures Readings
Current 20°C / 68°F
Dewpoint 5°C / 41°F
Humidity 38%
Altimeter 30.03" Hg
Pressure 1014.5 hPa
Elevation 1128
METAR CYIN 190700Z AUTO 30009G17KT 9SM BKN075 BKN100 20/05 A3003 RMK SLP145 DENSITY ALT 4900FT
Observed Flight Rules
Jul-19 @ 07:00 UTC
(33 minutes ago)
VFR
Wind Visibility
300° at 9 knots
 Gusting to 17 knots
9 miles
Clouds
  • Broken at 7,500' AGL
  • Broken at 10,000' AGL
Temperature Dewpoint
20°C / 68°F 5°C / 41°F
Humidity Altimeter Pressure
38% 30.03" Hg 1014.5 hPa